sensor_id;sensor_type;location;lat;lon;timestamp;temperature;humidity
3226;DHT22;1625;49.884;8.666;2022-09-06T00:02:12;21.00;99.90
3226;DHT22;1625;49.884;8.666;2022-09-06T00:04:38;21.00;99.90
3226;DHT22;1625;49.884;8.666;2022-09-06T00:07:03;21.00;99.90
3226;DHT22;1625;49.884;8.666;2022-09-06T00:09:29;21.00;99.90
3226;DHT22;1625;49.884;8.666;2022-09-06T00:11:55;20.90;99.90
3226;DHT22;1625;49.884;8.666;2022-09-06T00:14:20;21.00;99.90
3226;DHT22;1625;49.884;8.666;2022-09-06T00:16:46;21.00;99.90
3226;DHT22;1625;49.884;8.666;2022-09-06T00:19:11;21.00;99.90
3226;DHT22;1625;49.884;8.666;2022-09-06T00:21:37;21.00;99.90
3226;DHT22;1625;49.884;8.666;2022-09-06T00:24:02;20.90;99.90
3226;DHT22;1625;49.884;8.666;2022-09-06T00:26:28;20.90;99.90
3226;DHT22;1625;49.884;8.666;2022-09-06T00:28:54;20.90;99.90
3226;DHT22;1625;49.884;8.666;2022-09-06T00:31:21;20.90;99.90
3226;DHT22;1625;49.884;8.666;2022-09-06T00:33:47;20.90;99.90
3226;DHT22;1625;49.884;8.666;2022-09-06T00:36:13;20.90;99.90
3226;DHT22;1625;49.884;8.666;2022-09-06T00:38:39;20.90;99.90
3226;DHT22;1625;49.884;8.666;2022-09-06T00:41:07;20.80;99.90
3226;DHT22;1625;49.884;8.666;2022-09-06T00:43:33;20.80;99.90
3226;DHT22;1625;49.884;8.666;2022-09-06T00:45:59;20.80;99.90
3226;DHT22;1625;49.884;8.666;2022-09-06T00:48:25;20.80;99.90
3226;DHT22;1625;49.884;8.666;2022-09-06T00:50:53;20.80;99.90
3226;DHT22;1625;49.884;8.666;2022-09-06T00:53:20;20.70;99.90
3226;DHT22;1625;49.884;8.666;2022-09-06T00:55:46;20.70;99.90
3226;DHT22;1625;49.884;8.666;2022-09-06T00:58:13;20.60;99.90
3226;DHT22;1625;49.884;8.666;2022-09-06T01:00:39;20.70;99.90
3226;DHT22;1625;49.884;8.666;2022-09-06T01:03:05;20.60;99.90
3226;DHT22;1625;49.884;8.666;2022-09-06T01:11:00;20.60;99.90
3226;DHT22;1625;49.884;8.666;2022-09-06T01:30:18;20.50;99.90
3226;DHT22;1625;49.884;8.666;2022-09-06T01:35:50;20.40;99.90
3226;DHT22;1625;49.884;8.666;2022-09-06T01:38:16;20.40;99.90
3226;DHT22;1625;49.884;8.666;2022-09-06T01:40:42;20.30;99.90
3226;DHT22;1625;49.884;8.666;2022-09-06T01:43:10;20.40;99.90
3226;DHT22;1625;49.884;8.666;2022-09-06T01:48:58;20.40;99.90
3226;DHT22;1625;49.884;8.666;2022-09-06T02:07:22;20.20;99.90
3226;DHT22;1625;49.884;8.666;2022-09-06T02:09:56;20.20;99.90
3226;DHT22;1625;49.884;8.666;2022-09-06T02:12:25;20.20;99.90
3226;DHT22;1625;49.884;8.666;2022-09-06T02:14:56;20.30;99.90
3226;DHT22;1625;49.884;8.666;2022-09-06T02:17:26;20.30;99.90
3226;DHT22;1625;49.884;8.666;2022-09-06T02:20:06;20.40;99.90
3226;DHT22;1625;49.884;8.666;2022-09-06T02:22:38;20.40;99.90
3226;DHT22;1625;49.884;8.666;2022-09-06T02:25:07;20.50;99.90
3226;DHT22;1625;49.884;8.666;2022-09-06T02:27:34;20.50;99.90
3226;DHT22;1625;49.884;8.666;2022-09-06T02:30:00;20.50;99.90
3226;DHT22;1625;49.884;8.666;2022-09-06T02:32:28;20.60;99.90
3226;DHT22;1625;49.884;8.666;2022-09-06T02:34:55;20.60;99.90
3226;DHT22;1625;49.884;8.666;2022-09-06T02:37:24;20.70;99.90
3226;DHT22;1625;49.884;8.666;2022-09-06T02:39:51;20.70;99.90
3226;DHT22;1625;49.884;8.666;2022-09-06T02:42:19;20.70;99.90
3226;DHT22;1625;49.884;8.666;2022-09-06T02:44:45;20.80;99.90
3226;DHT22;1625;49.884;8.666;2022-09-06T02:47:11;20.70;99.90
3226;DHT22;1625;49.884;8.666;2022-09-06T02:49:36;20.80;99.90
3226;DHT22;1625;49.884;8.666;2022-09-06T02:52:02;20.80;99.90
3226;DHT22;1625;49.884;8.666;2022-09-06T02:54:27;20.80;99.90
3226;DHT22;1625;49.884;8.666;2022-09-06T02:56:53;20.80;99.90
3226;DHT22;1625;49.884;8.666;2022-09-06T02:59:18;20.80;99.90
3226;DHT22;1625;49.884;8.666;2022-09-06T03:01:44;20.80;99.90
3226;DHT22;1625;49.884;8.666;2022-09-06T03:04:09;20.80;99.90
3226;DHT22;1625;49.884;8.666;2022-09-06T03:06:35;20.80;99.90
3226;DHT22;1625;49.884;8.666;2022-09-06T03:09:00;20.80;99.90
3226;DHT22;1625;49.884;8.666;2022-09-06T03:11:27;20.80;99.90
3226;DHT22;1625;49.884;8.666;2022-09-06T03:13:52;20.80;99.90
3226;DHT22;1625;49.884;8.666;2022-09-06T03:16:18;20.80;99.90
3226;DHT22;1625;49.884;8.666;2022-09-06T03:18:44;20.80;99.90
3226;DHT22;1625;49.884;8.666;2022-09-06T03:21:11;20.80;99.90
3226;DHT22;1625;49.884;8.666;2022-09-06T03:23:37;20.80;99.90
3226;DHT22;1625;49.884;8.666;2022-09-06T03:26:04;20.80;99.90
3226;DHT22;1625;49.884;8.666;2022-09-06T03:28:29;20.80;99.90
3226;DHT22;1625;49.884;8.666;2022-09-06T03:30:55;20.80;99.90
3226;DHT22;1625;49.884;8.666;2022-09-06T03:33:20;20.80;99.90
3226;DHT22;1625;49.884;8.666;2022-09-06T03:35:51;20.80;99.90
3226;DHT22;1625;49.884;8.666;2022-09-06T03:38:17;20.80;99.90
3226;DHT22;1625;49.884;8.666;2022-09-06T03:40:47;20.80;99.90
3226;DHT22;1625;49.884;8.666;2022-09-06T03:43:15;20.80;99.90
3226;DHT22;1625;49.884;8.666;2022-09-06T03:45:48;20.80;99.90
3226;DHT22;1625;49.884;8.666;2022-09-06T03:48:14;20.70;99.90
3226;DHT22;1625;49.884;8.666;2022-09-06T03:50:47;20.80;99.90
3226;DHT22;1625;49.884;8.666;2022-09-06T03:53:14;20.90;99.90
3226;DHT22;1625;49.884;8.666;2022-09-06T03:55:52;20.90;99.90
3226;DHT22;1625;49.884;8.666;2022-09-06T03:58:20;20.90;99.90
3226;DHT22;1625;49.884;8.666;2022-09-06T04:00:46;20.90;99.90
3226;DHT22;1625;49.884;8.666;2022-09-06T04:03:12;21.00;99.90
3226;DHT22;1625;49.884;8.666;2022-09-06T04:05:37;21.00;99.90
3226;DHT22;1625;49.884;8.666;2022-09-06T04:08:03;21.00;99.90
3226;DHT22;1625;49.884;8.666;2022-09-06T04:10:30;20.90;99.90
3226;DHT22;1625;49.884;8.666;2022-09-06T04:12:56;20.80;99.90
3226;DHT22;1625;49.884;8.666;2022-09-06T04:15:21;20.80;99.90
3226;DHT22;1625;49.884;8.666;2022-09-06T04:17:47;20.80;99.90
3226;DHT22;1625;49.884;8.666;2022-09-06T04:20:13;20.70;99.90
3226;DHT22;1625;49.884;8.666;2022-09-06T04:22:39;20.70;99.90
3226;DHT22;1625;49.884;8.666;2022-09-06T04:25:05;20.60;99.90
3226;DHT22;1625;49.884;8.666;2022-09-06T04:27:31;20.60;99.90
3226;DHT22;1625;49.884;8.666;2022-09-06T04:29:56;20.60;99.90
3226;DHT22;1625;49.884;8.666;2022-09-06T04:32:22;20.50;99.90
3226;DHT22;1625;49.884;8.666;2022-09-06T04:34:48;20.50;99.90
3226;DHT22;1625;49.884;8.666;2022-09-06T04:37:13;20.40;99.90
3226;DHT22;1625;49.884;8.666;2022-09-06T04:39:42;20.40;99.90
3226;DHT22;1625;49.884;8.666;2022-09-06T04:42:08;20.40;99.90
3226;DHT22;1625;49.884;8.666;2022-09-06T04:44:34;20.30;99.90
3226;DHT22;1625;49.884;8.666;2022-09-06T04:47:09;20.20;99.90
3226;DHT22;1625;49.884;8.666;2022-09-06T04:49:37;20.20;99.90
3226;DHT22;1625;49.884;8.666;2022-09-06T04:52:03;20.10;99.90
3226;DHT22;1625;49.884;8.666;2022-09-06T04:54:28;20.10;99.90
3226;DHT22;1625;49.884;8.666;2022-09-06T04:56:54;20.10;99.90
3226;DHT22;1625;49.884;8.666;2022-09-06T04:59:19;20.10;99.90
3226;DHT22;1625;49.884;8.666;2022-09-06T05:01:45;20.00;99.90
3226;DHT22;1625;49.884;8.666;2022-09-06T05:04:10;20.00;99.90
3226;DHT22;1625;49.884;8.666;2022-09-06T05:06:36;20.00;99.90
3226;DHT22;1625;49.884;8.666;2022-09-06T05:09:03;19.90;99.90
3226;DHT22;1625;49.884;8.666;2022-09-06T05:11:28;19.90;99.90
3226;DHT22;1625;49.884;8.666;2022-09-06T05:13:54;19.90;99.90
3226;DHT22;1625;49.884;8.666;2022-09-06T05:16:20;19.90;99.90
3226;DHT22;1625;49.884;8.666;2022-09-06T05:18:45;19.90;99.90
3226;DHT22;1625;49.884;8.666;2022-09-06T05:21:11;19.90;99.90
3226;DHT22;1625;49.884;8.666;2022-09-06T05:23:36;19.90;99.90
3226;DHT22;1625;49.884;8.666;2022-09-06T05:26:02;19.80;99.90
3226;DHT22;1625;49.884;8.666;2022-09-06T05:28:28;19.80;99.90
3226;DHT22;1625;49.884;8.666;2022-09-06T05:31:07;19.80;99.90
3226;DHT22;1625;49.884;8.666;2022-09-06T05:33:33;19.80;99.90
3226;DHT22;1625;49.884;8.666;2022-09-06T05:35:58;19.90;99.90
3226;DHT22;1625;49.884;8.666;2022-09-06T05:38:24;19.90;99.90
3226;DHT22;1625;49.884;8.666;2022-09-06T05:40:50;19.90;99.90
3226;DHT22;1625;49.884;8.666;2022-09-06T05:43:16;19.90;99.90
3226;DHT22;1625;49.884;8.666;2022-09-06T05:45:41;19.90;99.90
3226;DHT22;1625;49.884;8.666;2022-09-06T05:48:07;20.00;99.90
3226;DHT22;1625;49.884;8.666;2022-09-06T05:50:33;20.10;99.90
3226;DHT22;1625;49.884;8.666;2022-09-06T05:52:58;20.10;99.90
3226;DHT22;1625;49.884;8.666;2022-09-06T05:55:24;20.20;99.90
3226;DHT22;1625;49.884;8.666;2022-09-06T05:57:50;20.30;99.90
3226;DHT22;1625;49.884;8.666;2022-09-06T06:00:15;20.30;99.90
3226;DHT22;1625;49.884;8.666;2022-09-06T06:02:41;20.40;99.90
3226;DHT22;1625;49.884;8.666;2022-09-06T06:05:06;20.40;99.90
3226;DHT22;1625;49.884;8.666;2022-09-06T06:07:32;20.40;99.90
3226;DHT22;1625;49.884;8.666;2022-09-06T06:09:58;20.40;99.90
3226;DHT22;1625;49.884;8.666;2022-09-06T06:12:23;20.50;99.90
3226;DHT22;1625;49.884;8.666;2022-09-06T06:14:49;20.40;99.90
3226;DHT22;1625;49.884;8.666;2022-09-06T06:17:14;20.40;99.90
3226;DHT22;1625;49.884;8.666;2022-09-06T06:19:40;20.40;99.90
3226;DHT22;1625;49.884;8.666;2022-09-06T06:22:06;20.50;99.90
3226;DHT22;1625;49.884;8.666;2022-09-06T06:24:31;20.60;99.90
3226;DHT22;1625;49.884;8.666;2022-09-06T06:26:57;20.60;99.90
3226;DHT22;1625;49.884;8.666;2022-09-06T06:29:23;20.70;99.90
3226;DHT22;1625;49.884;8.666;2022-09-06T06:31:49;20.70;99.90
3226;DHT22;1625;49.884;8.666;2022-09-06T06:34:15;20.70;99.90
3226;DHT22;1625;49.884;8.666;2022-09-06T06:36:45;20.70;99.90
3226;DHT22;1625;49.884;8.666;2022-09-06T06:39:10;20.80;99.90
3226;DHT22;1625;49.884;8.666;2022-09-06T06:41:36;20.80;99.90
3226;DHT22;1625;49.884;8.666;2022-09-06T06:44:03;20.80;99.90
3226;DHT22;1625;49.884;8.666;2022-09-06T06:46:31;20.80;99.90
3226;DHT22;1625;49.884;8.666;2022-09-06T06:48:57;20.80;99.90
3226;DHT22;1625;49.884;8.666;2022-09-06T06:51:28;20.80;99.90
3226;DHT22;1625;49.884;8.666;2022-09-06T06:56:30;20.90;99.90
3226;DHT22;1625;49.884;8.666;2022-09-06T06:58:58;21.00;99.90
3226;DHT22;1625;49.884;8.666;2022-09-06T07:01:26;21.00;99.90
3226;DHT22;1625;49.884;8.666;2022-09-06T07:03:51;21.10;99.90
3226;DHT22;1625;49.884;8.666;2022-09-06T07:06:18;21.10;99.90
3226;DHT22;1625;49.884;8.666;2022-09-06T07:08:44;21.10;99.90
3226;DHT22;1625;49.884;8.666;2022-09-06T07:11:12;21.10;99.90
3226;DHT22;1625;49.884;8.666;2022-09-06T07:13:38;21.10;99.90
3226;DHT22;1625;49.884;8.666;2022-09-06T07:16:21;21.10;99.90
3226;DHT22;1625;49.884;8.666;2022-09-06T07:18:50;21.20;99.90
3226;DHT22;1625;49.884;8.666;2022-09-06T07:21:18;21.20;99.90
3226;DHT22;1625;49.884;8.666;2022-09-06T07:23:44;21.30;99.90
3226;DHT22;1625;49.884;8.666;2022-09-06T07:26:17;21.40;99.90
3226;DHT22;1625;49.884;8.666;2022-09-06T07:28:43;21.50;99.90
3226;DHT22;1625;49.884;8.666;2022-09-06T07:31:09;21.60;99.90
3226;DHT22;1625;49.884;8.666;2022-09-06T07:33:36;21.60;99.90
3226;DHT22;1625;49.884;8.666;2022-09-06T07:36:04;21.60;99.90
3226;DHT22;1625;49.884;8.666;2022-09-06T07:38:31;21.60;99.90
3226;DHT22;1625;49.884;8.666;2022-09-06T07:40:59;21.60;99.90
3226;DHT22;1625;49.884;8.666;2022-09-06T07:43:25;21.60;99.90
3226;DHT22;1625;49.884;8.666;2022-09-06T07:46:06;21.70;99.90
3226;DHT22;1625;49.884;8.666;2022-09-06T07:48:34;21.80;99.90
3226;DHT22;1625;49.884;8.666;2022-09-06T07:51:10;21.80;99.90
3226;DHT22;1625;49.884;8.666;2022-09-06T07:53:38;21.90;99.90
3226;DHT22;1625;49.884;8.666;2022-09-06T07:56:06;21.90;99.90
3226;DHT22;1625;49.884;8.666;2022-09-06T07:58:32;22.00;99.90
3226;DHT22;1625;49.884;8.666;2022-09-06T08:01:26;22.00;99.90
3226;DHT22;1625;49.884;8.666;2022-09-06T08:03:56;22.00;99.90
3226;DHT22;1625;49.884;8.666;2022-09-06T08:06:23;22.00;99.90
3226;DHT22;1625;49.884;8.666;2022-09-06T08:08:49;22.00;99.90
3226;DHT22;1625;49.884;8.666;2022-09-06T08:11:15;22.00;99.90
3226;DHT22;1625;49.884;8.666;2022-09-06T08:13:41;22.00;99.90
3226;DHT22;1625;49.884;8.666;2022-09-06T08:16:08;22.10;99.90
3226;DHT22;1625;49.884;8.666;2022-09-06T08:18:35;22.10;99.90
3226;DHT22;1625;49.884;8.666;2022-09-06T08:21:13;22.10;99.90
3226;DHT22;1625;49.884;8.666;2022-09-06T08:23:40;22.20;99.90
3226;DHT22;1625;49.884;8.666;2022-09-06T08:26:08;22.20;99.90
3226;DHT22;1625;49.884;8.666;2022-09-06T08:28:34;22.20;99.90
3226;DHT22;1625;49.884;8.666;2022-09-06T08:31:10;22.20;99.90
3226;DHT22;1625;49.884;8.666;2022-09-06T08:33:37;22.30;99.90
3226;DHT22;1625;49.884;8.666;2022-09-06T08:36:04;22.30;99.90
3226;DHT22;1625;49.884;8.666;2022-09-06T08:38:30;22.30;99.90
3226;DHT22;1625;49.884;8.666;2022-09-06T08:41:06;22.40;99.90
3226;DHT22;1625;49.884;8.666;2022-09-06T08:43:33;22.40;99.90
3226;DHT22;1625;49.884;8.666;2022-09-06T08:45:59;22.40;99.90
3226;DHT22;1625;49.884;8.666;2022-09-06T08:48:29;22.50;99.90
3226;DHT22;1625;49.884;8.666;2022-09-06T08:53:54;22.60;99.90
3226;DHT22;1625;49.884;8.666;2022-09-06T08:56:25;22.70;99.90
3226;DHT22;1625;49.884;8.666;2022-09-06T08:59:05;22.60;99.90
3226;DHT22;1625;49.884;8.666;2022-09-06T09:04:04;22.80;99.90
3226;DHT22;1625;49.884;8.666;2022-09-06T09:06:31;22.70;99.90
3226;DHT22;1625;49.884;8.666;2022-09-06T09:09:04;22.80;99.90
3226;DHT22;1625;49.884;8.666;2022-09-06T09:11:31;22.90;99.90
3226;DHT22;1625;49.884;8.666;2022-09-06T09:14:17;22.90;99.90
3226;DHT22;1625;49.884;8.666;2022-09-06T09:16:49;23.00;99.90
3226;DHT22;1625;49.884;8.666;2022-09-06T09:19:15;23.00;99.90
3226;DHT22;1625;49.884;8.666;2022-09-06T09:21:41;23.10;99.90
3226;DHT22;1625;49.884;8.666;2022-09-06T09:24:11;23.10;99.90
3226;DHT22;1625;49.884;8.666;2022-09-06T09:26:56;23.10;99.90
3226;DHT22;1625;49.884;8.666;2022-09-06T09:29:23;23.20;99.90
3226;DHT22;1625;49.884;8.666;2022-09-06T09:31:52;23.20;99.90
3226;DHT22;1625;49.884;8.666;2022-09-06T09:37:24;23.40;99.90
3226;DHT22;1625;49.884;8.666;2022-09-06T09:39:54;23.40;99.90
3226;DHT22;1625;49.884;8.666;2022-09-06T09:42:31;23.50;99.90
3226;DHT22;1625;49.884;8.666;2022-09-06T09:44:58;23.50;99.90
3226;DHT22;1625;49.884;8.666;2022-09-06T09:47:29;23.50;99.90
3226;DHT22;1625;49.884;8.666;2022-09-06T09:49:56;23.60;99.90
3226;DHT22;1625;49.884;8.666;2022-09-06T09:52:27;23.70;99.90
3226;DHT22;1625;49.884;8.666;2022-09-06T09:54:57;23.80;99.90
3226;DHT22;1625;49.884;8.666;2022-09-06T09:57:24;23.70;99.90
3226;DHT22;1625;49.884;8.666;2022-09-06T09:59:57;23.80;99.90
3226;DHT22;1625;49.884;8.666;2022-09-06T10:02:36;23.80;99.90
3226;DHT22;1625;49.884;8.666;2022-09-06T10:05:05;23.90;99.90
3226;DHT22;1625;49.884;8.666;2022-09-06T10:07:33;23.90;99.90
3226;DHT22;1625;49.884;8.666;2022-09-06T10:10:11;24.10;99.90
3226;DHT22;1625;49.884;8.666;2022-09-06T10:12:39;24.10;99.90
3226;DHT22;1625;49.884;8.666;2022-09-06T10:15:34;24.10;99.90
3226;DHT22;1625;49.884;8.666;2022-09-06T10:18:00;24.10;99.90
3226;DHT22;1625;49.884;8.666;2022-09-06T10:20:38;24.10;99.90
3226;DHT22;1625;49.884;8.666;2022-09-06T10:25:51;24.10;99.90
3226;DHT22;1625;49.884;8.666;2022-09-06T10:28:30;24.20;99.90
3226;DHT22;1625;49.884;8.666;2022-09-06T10:36:58;24.20;99.90
3226;DHT22;1625;49.884;8.666;2022-09-06T10:39:47;24.20;99.90
3226;DHT22;1625;49.884;8.666;2022-09-06T10:42:44;24.30;99.90
3226;DHT22;1625;49.884;8.666;2022-09-06T10:50:42;24.60;99.90
3226;DHT22;1625;49.884;8.666;2022-09-06T10:53:21;24.60;99.90
3226;DHT22;1625;49.884;8.666;2022-09-06T10:55:51;24.70;99.90
3226;DHT22;1625;49.884;8.666;2022-09-06T10:58:27;24.90;99.90
3226;DHT22;1625;49.884;8.666;2022-09-06T11:00:54;25.00;99.90
3226;DHT22;1625;49.884;8.666;2022-09-06T11:03:27;25.00;99.90
3226;DHT22;1625;49.884;8.666;2022-09-06T11:06:03;25.00;99.90
3226;DHT22;1625;49.884;8.666;2022-09-06T11:11:12;25.20;99.90
3226;DHT22;1625;49.884;8.666;2022-09-06T11:13:37;25.30;99.90
3226;DHT22;1625;49.884;8.666;2022-09-06T11:16:11;25.40;99.90
3226;DHT22;1625;49.884;8.666;2022-09-06T11:19:03;25.50;99.90
3226;DHT22;1625;49.884;8.666;2022-09-06T11:22:00;25.50;99.90
3226;DHT22;1625;49.884;8.666;2022-09-06T11:24:47;25.50;99.90
3226;DHT22;1625;49.884;8.666;2022-09-06T11:27:31;25.60;99.90
3226;DHT22;1625;49.884;8.666;2022-09-06T11:30:00;25.70;99.90
3226;DHT22;1625;49.884;8.666;2022-09-06T11:32:47;25.70;99.90
3226;DHT22;1625;49.884;8.666;2022-09-06T11:37:47;25.90;99.90
3226;DHT22;1625;49.884;8.666;2022-09-06T11:40:25;25.90;99.90
3226;DHT22;1625;49.884;8.666;2022-09-06T11:47:53;26.00;99.90
3226;DHT22;1625;49.884;8.666;2022-09-06T11:55:22;26.30;99.90
3226;DHT22;1625;49.884;8.666;2022-09-06T11:57:53;26.40;99.90
3226;DHT22;1625;49.884;8.666;2022-09-06T12:00:21;26.40;99.90
3226;DHT22;1625;49.884;8.666;2022-09-06T12:02:48;26.50;99.90
3226;DHT22;1625;49.884;8.666;2022-09-06T12:05:18;26.60;99.90
3226;DHT22;1625;49.884;8.666;2022-09-06T12:10:59;26.60;99.90
3226;DHT22;1625;49.884;8.666;2022-09-06T12:13:51;26.70;99.90
3226;DHT22;1625;49.884;8.666;2022-09-06T12:16:18;26.80;99.90
3226;DHT22;1625;49.884;8.666;2022-09-06T12:21:37;26.90;99.90
3226;DHT22;1625;49.884;8.666;2022-09-06T12:24:06;27.00;99.90
3226;DHT22;1625;49.884;8.666;2022-09-06T12:27:06;26.90;99.90
3226;DHT22;1625;49.884;8.666;2022-09-06T12:29:32;27.10;99.90
3226;DHT22;1625;49.884;8.666;2022-09-06T12:31:58;27.20;99.90
3226;DHT22;1625;49.884;8.666;2022-09-06T12:34:29;27.30;99.90
3226;DHT22;1625;49.884;8.666;2022-09-06T12:39:23;27.30;99.90
3226;DHT22;1625;49.884;8.666;2022-09-06T12:41:54;27.40;99.90
3226;DHT22;1625;49.884;8.666;2022-09-06T12:44:32;27.50;99.90
3226;DHT22;1625;49.884;8.666;2022-09-06T12:47:03;27.50;99.90
3226;DHT22;1625;49.884;8.666;2022-09-06T12:49:30;27.40;99.90
3226;DHT22;1625;49.884;8.666;2022-09-06T12:52:10;27.40;99.90
3226;DHT22;1625;49.884;8.666;2022-09-06T12:54:42;27.50;99.90
3226;DHT22;1625;49.884;8.666;2022-09-06T12:59:56;27.80;99.90
3226;DHT22;1625;49.884;8.666;2022-09-06T13:02:32;27.90;99.90
3226;DHT22;1625;49.884;8.666;2022-09-06T13:05:04;27.90;99.90
3226;DHT22;1625;49.884;8.666;2022-09-06T13:07:31;27.90;99.90
3226;DHT22;1625;49.884;8.666;2022-09-06T13:09:58;28.00;99.90
3226;DHT22;1625;49.884;8.666;2022-09-06T13:12:38;28.00;99.90
3226;DHT22;1625;49.884;8.666;2022-09-06T13:18:30;28.10;99.90
3226;DHT22;1625;49.884;8.666;2022-09-06T13:21:04;28.20;99.90
3226;DHT22;1625;49.884;8.666;2022-09-06T13:23:39;28.20;99.90
3226;DHT22;1625;49.884;8.666;2022-09-06T13:26:06;28.20;99.90
3226;DHT22;1625;49.884;8.666;2022-09-06T13:28:33;28.20;99.90
3226;DHT22;1625;49.884;8.666;2022-09-06T13:33:30;28.30;99.90
3226;DHT22;1625;49.884;8.666;2022-09-06T15:03:55;33.70;92.20
3226;DHT22;1625;49.884;8.666;2022-09-06T15:06:22;33.40;92.00
3226;DHT22;1625;49.884;8.666;2022-09-06T15:08:58;32.10;92.10
3226;DHT22;1625;49.884;8.666;2022-09-06T15:14:03;31.10;92.10
3226;DHT22;1625;49.884;8.666;2022-09-06T15:16:29;30.80;92.60
3226;DHT22;1625;49.884;8.666;2022-09-06T15:18:54;30.90;91.90
3226;DHT22;1625;49.884;8.666;2022-09-06T15:21:20;30.40;92.10
3226;DHT22;1625;49.884;8.666;2022-09-06T15:23:46;30.10;92.80
3226;DHT22;1625;49.884;8.666;2022-09-06T15:26:13;29.70;92.90
3226;DHT22;1625;49.884;8.666;2022-09-06T15:28:40;29.40;92.60
3226;DHT22;1625;49.884;8.666;2022-09-06T15:31:07;29.20;93.10
3226;DHT22;1625;49.884;8.666;2022-09-06T15:33:34;28.90;93.30
3226;DHT22;1625;49.884;8.666;2022-09-06T15:36:00;28.70;93.90
3226;DHT22;1625;49.884;8.666;2022-09-06T15:38:44;28.60;94.10
3226;DHT22;1625;49.884;8.666;2022-09-06T15:41:14;28.40;94.70
3226;DHT22;1625;49.884;8.666;2022-09-06T15:43:44;28.20;95.10
3226;DHT22;1625;49.884;8.666;2022-09-06T15:46:12;27.50;95.10
3226;DHT22;1625;49.884;8.666;2022-09-06T15:48:44;27.90;95.90
3226;DHT22;1625;49.884;8.666;2022-09-06T15:51:12;27.80;95.90
3226;DHT22;1625;49.884;8.666;2022-09-06T15:53:38;27.50;96.40
3226;DHT22;1625;49.884;8.666;2022-09-06T15:56:05;27.40;96.60
3226;DHT22;1625;49.884;8.666;2022-09-06T15:58:31;27.40;97.40
3226;DHT22;1625;49.884;8.666;2022-09-06T17:11:19;24.90;99.90
3226;DHT22;1625;49.884;8.666;2022-09-06T17:13:52;24.60;99.90
3226;DHT22;1625;49.884;8.666;2022-09-06T17:16:19;24.60;99.90
3226;DHT22;1625;49.884;8.666;2022-09-06T17:19:04;24.60;99.90
3226;DHT22;1625;49.884;8.666;2022-09-06T17:21:40;24.60;99.90
3226;DHT22;1625;49.884;8.666;2022-09-06T17:24:22;24.60;99.90
3226;DHT22;1625;49.884;8.666;2022-09-06T17:27:00;24.50;99.90
3226;DHT22;1625;49.884;8.666;2022-09-06T17:30:15;24.40;99.90
3226;DHT22;1625;49.884;8.666;2022-09-06T17:39:21;24.30;99.90
3226;DHT22;1625;49.884;8.666;2022-09-06T17:50:23;23.60;99.90
3226;DHT22;1625;49.884;8.666;2022-09-06T18:03:30;22.90;99.90
3226;DHT22;1625;49.884;8.666;2022-09-06T18:14:20;22.80;99.90
3226;DHT22;1625;49.884;8.666;2022-09-06T18:17:48;22.80;99.90
3226;DHT22;1625;49.884;8.666;2022-09-06T18:31:33;22.70;99.90
3226;DHT22;1625;49.884;8.666;2022-09-06T18:38:23;22.60;99.90
3226;DHT22;1625;49.884;8.666;2022-09-06T18:44:59;22.70;99.90
3226;DHT22;1625;49.884;8.666;2022-09-06T18:47:28;22.70;99.90
3226;DHT22;1625;49.884;8.666;2022-09-06T18:50:43;22.70;99.90
3226;DHT22;1625;49.884;8.666;2022-09-06T18:58:49;22.60;99.90
3226;DHT22;1625;49.884;8.666;2022-09-06T19:01:25;22.60;99.90
3226;DHT22;1625;49.884;8.666;2022-09-06T19:03:55;22.60;99.90
3226;DHT22;1625;49.884;8.666;2022-09-06T19:13:16;22.60;99.90
3226;DHT22;1625;49.884;8.666;2022-09-06T19:15:42;23.50;99.90
3226;DHT22;1625;49.884;8.666;2022-09-06T19:18:08;22.90;99.90
3226;DHT22;1625;49.884;8.666;2022-09-06T19:20:34;22.60;99.90
3226;DHT22;1625;49.884;8.666;2022-09-06T19:22:59;22.70;99.90
3226;DHT22;1625;49.884;8.666;2022-09-06T19:25:26;22.60;99.90
3226;DHT22;1625;49.884;8.666;2022-09-06T19:27:51;22.60;99.90
3226;DHT22;1625;49.884;8.666;2022-09-06T19:30:25;22.60;99.90
3226;DHT22;1625;49.884;8.666;2022-09-06T19:32:50;22.60;99.90
3226;DHT22;1625;49.884;8.666;2022-09-06T19:35:16;22.60;99.90
3226;DHT22;1625;49.884;8.666;2022-09-06T19:38:12;22.60;99.90
3226;DHT22;1625;49.884;8.666;2022-09-06T19:40:38;22.60;99.90
3226;DHT22;1625;49.884;8.666;2022-09-06T19:43:03;22.60;99.90
3226;DHT22;1625;49.884;8.666;2022-09-06T21:10:18;22.30;99.90
3226;DHT22;1625;49.884;8.666;2022-09-06T21:12:43;22.30;99.90
3226;DHT22;1625;49.884;8.666;2022-09-06T21:15:09;22.20;99.90
3226;DHT22;1625;49.884;8.666;2022-09-06T21:17:34;22.20;99.90
3226;DHT22;1625;49.884;8.666;2022-09-06T21:20:01;22.20;99.90
3226;DHT22;1625;49.884;8.666;2022-09-06T21:22:26;22.20;99.90
3226;DHT22;1625;49.884;8.666;2022-09-06T21:24:53;22.10;99.90
3226;DHT22;1625;49.884;8.666;2022-09-06T21:27:20;22.10;99.90
3226;DHT22;1625;49.884;8.666;2022-09-06T21:29:45;22.10;99.90
3226;DHT22;1625;49.884;8.666;2022-09-06T21:32:11;22.00;99.90
3226;DHT22;1625;49.884;8.666;2022-09-06T21:34:37;22.00;99.90
3226;DHT22;1625;49.884;8.666;2022-09-06T21:37:03;21.90;99.90
3226;DHT22;1625;49.884;8.666;2022-09-06T21:39:28;21.90;99.90
3226;DHT22;1625;49.884;8.666;2022-09-06T21:41:54;21.80;99.90
3226;DHT22;1625;49.884;8.666;2022-09-06T21:44:20;21.80;99.90
3226;DHT22;1625;49.884;8.666;2022-09-06T21:46:45;21.70;99.90
3226;DHT22;1625;49.884;8.666;2022-09-06T21:49:12;21.70;99.90
3226;DHT22;1625;49.884;8.666;2022-09-06T21:51:38;21.70;99.90
3226;DHT22;1625;49.884;8.666;2022-09-06T21:54:04;21.70;99.90
3226;DHT22;1625;49.884;8.666;2022-09-06T21:56:35;21.70;99.90
3226;DHT22;1625;49.884;8.666;2022-09-06T21:59:00;21.70;99.90
3226;DHT22;1625;49.884;8.666;2022-09-06T22:01:28;21.80;99.90
3226;DHT22;1625;49.884;8.666;2022-09-06T22:03:54;21.70;99.90
3226;DHT22;1625;49.884;8.666;2022-09-06T22:06:22;21.60;99.90
3226;DHT22;1625;49.884;8.666;2022-09-06T22:08:49;21.60;99.90
3226;DHT22;1625;49.884;8.666;2022-09-06T22:11:20;21.50;99.90
3226;DHT22;1625;49.884;8.666;2022-09-06T22:13:48;21.50;99.90
3226;DHT22;1625;49.884;8.666;2022-09-06T22:16:15;21.40;99.90
3226;DHT22;1625;49.884;8.666;2022-09-06T22:18:41;21.40;99.90
3226;DHT22;1625;49.884;8.666;2022-09-06T22:21:09;21.30;99.90
3226;DHT22;1625;49.884;8.666;2022-09-06T22:23:35;21.40;99.90
3226;DHT22;1625;49.884;8.666;2022-09-06T22:26:11;21.40;99.90
3226;DHT22;1625;49.884;8.666;2022-09-06T22:28:40;21.30;99.90
3226;DHT22;1625;49.884;8.666;2022-09-06T22:31:06;21.40;99.90
3226;DHT22;1625;49.884;8.666;2022-09-06T22:33:33;21.40;99.90
3226;DHT22;1625;49.884;8.666;2022-09-06T22:35:59;21.30;99.90
3226;DHT22;1625;49.884;8.666;2022-09-06T22:38:26;21.30;99.90
3226;DHT22;1625;49.884;8.666;2022-09-06T22:40:52;21.30;99.90
3226;DHT22;1625;49.884;8.666;2022-09-06T22:43:18;21.30;99.90
3226;DHT22;1625;49.884;8.666;2022-09-06T22:45:44;21.00;99.90
3226;DHT22;1625;49.884;8.666;2022-09-06T22:48:11;21.30;99.90
3226;DHT22;1625;49.884;8.666;2022-09-06T22:50:38;21.30;99.90
3226;DHT22;1625;49.884;8.666;2022-09-06T22:53:03;21.30;99.90
3226;DHT22;1625;49.884;8.666;2022-09-06T22:55:29;21.30;99.90
3226;DHT22;1625;49.884;8.666;2022-09-06T22:57:55;21.20;99.90
3226;DHT22;1625;49.884;8.666;2022-09-06T23:00:20;21.20;99.90
3226;DHT22;1625;49.884;8.666;2022-09-06T23:02:46;21.10;99.90
3226;DHT22;1625;49.884;8.666;2022-09-06T23:05:11;21.20;99.90
3226;DHT22;1625;49.884;8.666;2022-09-06T23:07:37;21.10;99.90
3226;DHT22;1625;49.884;8.666;2022-09-06T23:10:03;21.10;99.90